Time;durP1;ratioP1;P1;durP2;ratioP2;P2;SDS_P1;SDS_P2;PMS_P1;PMS_P2;Temp;Humidity;BMP_temperature;BMP_pressure;BME280_temperature;BME280_humidity;BME280_pressure;Samples;Min_cycle;Max_cycle;Signal;HPM_P1;HPM_P2
2022/11/18 00:01:09;;;;;;;61.78;33.33;;;3.80;99.90;;;;;;5053209;28;20396;-68
2022/11/18 00:03:36;;;;;;;53.47;32.63;;;3.80;99.90;;;;;;5051901;28;20407;-68
2022/11/18 00:06:02;;;;;;;57.38;33.55;;;3.80;99.90;;;;;;5053190;28;20028;-68
2022/11/18 00:08:28;;;;;;;54.90;34.80;;;3.90;99.90;;;;;;5053087;28;20044;-68
2022/11/18 00:10:54;;;;;;;54.72;32.95;;;3.80;99.90;;;;;;5053188;28;20438;-68
2022/11/18 00:16:07;;;;;;;58.47;35.75;;;3.80;99.90;;;;;;5053706;28;20039;-68
2022/11/18 00:18:32;;;;;;;64.10;37.10;;;3.80;99.90;;;;;;5052426;28;20033;-68
2022/11/18 00:21:02;;;;;;;63.83;35.40;;;3.80;99.90;;;;;;5053066;28;20020;-68
2022/11/18 00:23:28;;;;;;;61.40;36.58;;;3.80;99.90;;;;;;5053062;28;20024;-68
2022/11/18 00:25:54;;;;;;;60.42;36.45;;;3.80;99.90;;;;;;5053023;28;20021;-68
2022/11/18 00:28:20;;;;;;;73.32;38.22;;;3.80;99.90;;;;;;5052874;28;20017;-68
2022/11/18 00:30:45;;;;;;;68.97;38.53;;;3.80;99.90;;;;;;5052492;28;20075;-68
2022/11/18 00:33:11;;;;;;;63.20;37.65;;;3.80;99.90;;;;;;5053094;28;20108;-68
2022/11/18 00:35:36;;;;;;;65.40;38.03;;;3.80;99.90;;;;;;5053420;28;20017;-68
2022/11/18 00:38:02;;;;;;;67.65;37.45;;;3.80;99.90;;;;;;5052272;28;20029;-67
2022/11/18 00:40:27;;;;;;;64.82;37.78;;;3.80;99.90;;;;;;5052807;28;20039;-68
2022/11/18 00:42:53;;;;;;;65.05;35.95;;;3.80;99.90;;;;;;5052809;28;20438;-68
2022/11/18 00:45:19;;;;;;;62.10;36.58;;;3.80;99.90;;;;;;5053085;28;20127;-68
2022/11/18 00:47:45;;;;;;;70.47;38.45;;;3.80;99.90;;;;;;5052288;28;20380;-67
2022/11/18 00:50:11;;;;;;;68.38;40.28;;;3.80;99.90;;;;;;5052764;28;20029;-68
2022/11/18 00:52:37;;;;;;;71.90;38.33;;;3.80;99.90;;;;;;5052744;28;20487;-68
2022/11/18 00:55:03;;;;;;;73.18;37.50;;;3.80;99.90;;;;;;5052764;28;20032;-68
2022/11/18 00:57:28;;;;;;;64.05;36.83;;;3.80;99.90;;;;;;5052277;28;20476;-67
2022/11/18 00:59:54;;;;;;;69.97;36.53;;;3.80;99.90;;;;;;5053194;28;20056;-68
2022/11/18 01:02:19;;;;;;;71.32;37.50;;;3.80;99.90;;;;;;5052933;28;20110;-68
2022/11/18 01:04:45;;;;;;;57.65;33.67;;;3.90;99.90;;;;;;5052653;28;20159;-68
2022/11/18 01:07:10;;;;;;;67.28;34.20;;;3.80;99.90;;;;;;5052557;28;20033;-68
2022/11/18 01:09:36;;;;;;;61.80;34.15;;;3.90;99.90;;;;;;5052104;28;20095;-67
2022/11/18 01:14:45;;;;;;;59.90;32.90;;;3.90;99.90;;;;;;5054834;28;20036;-68
2022/11/18 01:17:11;;;;;;;62.15;32.90;;;3.90;99.90;;;;;;5056131;28;20029;-68
2022/11/18 01:19:36;;;;;;;58.42;32.10;;;3.90;99.90;;;;;;5056170;28;20041;-67
2022/11/18 01:22:02;;;;;;;56.85;32.88;;;3.90;99.90;;;;;;5056044;28;20021;-68
2022/11/18 01:24:30;;;;;;;56.25;32.67;;;3.90;99.90;;;;;;5056312;28;20460;-68
2022/11/18 01:26:56;;;;;;;53.33;32.25;;;3.80;99.90;;;;;;5056019;28;20032;-68
2022/11/18 01:29:21;;;;;;;53.33;28.33;;;3.90;99.90;;;;;;5055368;28;20017;-67
2022/11/18 01:31:47;;;;;;;52.92;30.23;;;3.80;99.90;;;;;;5055888;28;20443;-68
2022/11/18 01:34:12;;;;;;;57.63;29.60;;;3.90;99.90;;;;;;5055836;28;20036;-68
2022/11/18 01:36:38;;;;;;;53.90;30.80;;;3.90;99.90;;;;;;5055846;28;20033;-68
2022/11/18 01:39:03;;;;;;;50.15;29.85;;;3.90;99.90;;;;;;5055644;28;20025;-68
2022/11/18 01:41:29;;;;;;;51.47;28.92;;;3.90;99.90;;;;;;5055168;28;20051;-68
2022/11/18 01:43:59;;;;;;;45.88;28.23;;;3.90;99.90;;;;;;5055961;28;20483;-68
2022/11/18 01:46:28;;;;;;;45.20;27.10;;;3.90;99.90;;;;;;5055609;28;20017;-68
2022/11/18 01:49:14;;;;;;;48.00;26.35;;;3.90;99.90;;;;;;5055584;28;20468;-68
2022/11/18 01:51:52;;;;;;;42.53;23.00;;;3.90;99.90;;;;;;5055235;28;20041;-68
2022/11/18 01:54:29;;;;;;;40.08;23.13;;;3.90;99.90;;;;;;5055382;28;20024;-68
2022/11/18 01:56:58;;;;;;;41.90;24.17;;;3.90;99.90;;;;;;5055759;28;20376;-68
2022/11/18 01:59:29;;;;;;;50.67;23.52;;;3.90;99.90;;;;;;5055361;28;20128;-68
2022/11/18 02:01:55;;;;;;;34.40;23.55;;;3.90;99.90;;;;;;5056169;28;20028;-68
2022/11/18 02:04:21;;;;;;;40.47;23.95;;;3.90;99.90;;;;;;5055879;28;20021;-68
2022/11/18 02:06:47;;;;;;;37.08;21.60;;;3.80;99.90;;;;;;5054765;28;20100;-67
2022/11/18 02:09:14;;;;;;;37.95;23.50;;;3.80;99.90;;;;;;5055187;28;20183;-68
2022/11/18 02:11:55;;;;;;;47.15;24.60;;;3.80;99.90;;;;;;5055191;28;20029;-68
2022/11/18 02:14:30;;;;;;;44.20;24.67;;;3.80;99.90;;;;;;5055421;28;20017;-68
2022/11/18 02:17:34;;;;;;;34.85;22.45;;;3.80;99.90;;;;;;5054628;28;20488;-67
2022/11/18 02:20:17;;;;;;;38.55;22.50;;;3.80;99.90;;;;;;5055525;28;20036;-68
2022/11/18 02:22:45;;;;;;;33.90;21.90;;;3.80;99.90;;;;;;5055274;28;20108;-68
2022/11/18 02:25:23;;;;;;;37.50;22.23;;;3.80;99.90;;;;;;5054590;28;20025;-68
2022/11/18 02:28:34;;;;;;;36.95;21.80;;;3.80;99.90;;;;;;5054777;28;20021;-68
2022/11/18 02:31:22;;;;;;;44.45;20.77;;;3.80;99.90;;;;;;5010880;28;20179;-68
2022/11/18 02:33:58;;;;;;;36.85;20.65;;;3.80;99.90;;;;;;5054742;28;20021;-68
2022/11/18 02:36:42;;;;;;;35.08;19.23;;;3.80;99.90;;;;;;5055006;28;20059;-68
2022/11/18 02:39:17;;;;;;;33.58;19.13;;;3.80;99.90;;;;;;5054571;28;20387;-67
2022/11/18 02:41:46;;;;;;;28.05;18.83;;;3.80;99.90;;;;;;5054925;28;20060;-68
2022/11/18 02:44:14;;;;;;;24.67;16.83;;;3.80;99.90;;;;;;5054874;28;20021;-68
2022/11/18 02:46:44;;;;;;;28.92;17.23;;;3.80;99.90;;;;;;5054513;28;20025;-67
2022/11/18 02:49:17;;;;;;;29.52;18.75;;;3.70;99.90;;;;;;5054099;28;20029;-68
2022/11/18 02:51:44;;;;;;;30.15;17.45;;;3.80;99.90;;;;;;5055065;28;20025;-68
2022/11/18 02:54:12;;;;;;;25.83;16.67;;;3.80;99.90;;;;;;5054623;28;20028;-68
2022/11/18 02:56:38;;;;;;;35.63;16.23;;;3.70;99.90;;;;;;5052329;28;20025;-67
2022/11/18 02:59:04;;;;;;;28.77;16.65;;;3.80;99.90;;;;;;5053894;28;20491;-67
2022/11/18 03:01:32;;;;;;;29.33;15.55;;;3.70;99.90;;;;;;5057050;28;20039;-68
2022/11/18 03:03:58;;;;;;;26.60;16.33;;;3.70;99.90;;;;;;5046624;28;20476;-67
2022/11/18 03:06:32;;;;;;;24.73;14.40;;;3.70;99.90;;;;;;5059880;28;20024;-68
2022/11/18 03:09:04;;;;;;;28.48;15.93;;;3.70;99.90;;;;;;5074047;28;20452;-67
2022/11/18 03:11:35;;;;;;;28.73;15.43;;;3.70;99.90;;;;;;5073310;28;20028;-68
2022/11/18 03:14:24;;;;;;;35.03;15.27;;;3.70;99.90;;;;;;5074513;28;20031;-68
2022/11/18 03:17:00;;;;;;;25.40;15.07;;;3.70;99.90;;;;;;5073887;28;20030;-68
2022/11/18 03:19:51;;;;;;;27.92;14.82;;;3.70;99.90;;;;;;5073760;28;20039;-68
2022/11/18 03:22:24;;;;;;;20.05;13.48;;;3.70;99.90;;;;;;5073492;28;20392;-68
2022/11/18 03:24:59;;;;;;;23.45;14.43;;;3.70;99.90;;;;;;5074107;28;20024;-68
2022/11/18 03:27:34;;;;;;;25.00;15.30;;;3.70;99.90;;;;;;5073683;28;20062;-67
2022/11/18 03:30:07;;;;;;;32.47;14.75;;;3.70;99.90;;;;;;5073935;28;20029;-68
2022/11/18 03:32:37;;;;;;;24.45;14.80;;;3.60;99.90;;;;;;5073313;28;20052;-67
2022/11/18 03:35:08;;;;;;;25.27;13.88;;;3.60;99.90;;;;;;5074197;28;20032;-68
2022/11/18 03:37:35;;;;;;;25.33;14.35;;;3.60;99.90;;;;;;5073783;28;20476;-68
2022/11/18 03:40:10;;;;;;;26.08;13.50;;;3.60;99.90;;;;;;5073468;28;20020;-68
2022/11/18 03:42:48;;;;;;;24.63;14.23;;;3.60;99.90;;;;;;5073429;28;20115;-67
2022/11/18 03:45:19;;;;;;;22.25;13.70;;;3.60;99.90;;;;;;5073862;28;20020;-68
2022/11/18 03:47:57;;;;;;;21.75;13.35;;;3.60;99.90;;;;;;5073055;28;20066;-67
2022/11/18 03:50:30;;;;;;;27.40;13.10;;;3.60;99.90;;;;;;5073496;28;20082;-68
2022/11/18 03:52:57;;;;;;;34.88;13.95;;;3.70;99.90;;;;;;5073734;28;20484;-68
2022/11/18 03:55:28;;;;;;;22.80;13.52;;;3.70;99.90;;;;;;5073054;28;20032;-68
2022/11/18 03:58:00;;;;;;;29.10;13.40;;;3.70;99.90;;;;;;5073427;28;20035;-67
2022/11/18 04:00:31;;;;;;;25.20;13.60;;;3.60;99.90;;;;;;5073182;28;20092;-67
2022/11/18 04:02:57;;;;;;;32.95;13.13;;;3.70;99.90;;;;;;5072750;28;20451;-67
2022/11/18 04:05:22;;;;;;;24.23;12.52;;;3.70;99.90;;;;;;5073480;28;20107;-67
2022/11/18 04:07:57;;;;;;;18.63;11.98;;;3.70;99.90;;;;;;5073159;28;20020;-67
2022/11/18 04:10:32;;;;;;;26.55;13.38;;;3.60;99.90;;;;;;5073748;28;20039;-67
2022/11/18 04:13:06;;;;;;;23.45;12.50;;;3.70;99.90;;;;;;5072961;28;20112;-67
2022/11/18 04:15:32;;;;;;;22.67;12.00;;;3.70;99.90;;;;;;5073455;28;20036;-67
2022/11/18 04:17:58;;;;;;;24.95;13.02;;;3.70;99.90;;;;;;5070970;28;20032;-67
2022/11/18 04:20:24;;;;;;;22.30;12.13;;;3.70;99.90;;;;;;5053279;28;20033;-68
2022/11/18 04:22:50;;;;;;;25.58;12.65;;;3.70;99.90;;;;;;5052580;28;20017;-67
2022/11/18 04:25:15;;;;;;;29.65;13.15;;;3.70;99.90;;;;;;5053531;28;20040;-68
2022/11/18 04:27:41;;;;;;;29.13;13.82;;;3.70;99.90;;;;;;5066368;28;20480;-67
2022/11/18 04:30:07;;;;;;;25.77;12.02;;;3.70;99.90;;;;;;5073322;28;20476;-67
2022/11/18 04:32:33;;;;;;;22.85;11.93;;;3.70;99.90;;;;;;5072954;28;20503;-67
2022/11/18 04:34:59;;;;;;;21.85;11.48;;;3.70;99.90;;;;;;5073173;28;20032;-68
2022/11/18 04:37:25;;;;;;;25.08;11.57;;;3.70;99.90;;;;;;5072324;28;20029;-67
2022/11/18 04:39:50;;;;;;;21.02;12.45;;;3.70;99.90;;;;;;5072833;28;20036;-67
2022/11/18 04:42:16;;;;;;;22.90;11.43;;;3.70;99.90;;;;;;5072913;28;20476;-67
2022/11/18 04:44:42;;;;;;;26.00;12.65;;;3.70;99.90;;;;;;5072859;28;20016;-68
2022/11/18 04:47:07;;;;;;;28.73;11.57;;;3.70;99.90;;;;;;5072188;28;20468;-68
2022/11/18 04:49:34;;;;;;;21.75;11.18;;;3.70;99.90;;;;;;5075127;28;20032;-68
2022/11/18 04:52:00;;;;;;;20.58;10.32;;;3.60;99.90;;;;;;5076919;28;20058;-68
2022/11/18 04:54:26;;;;;;;21.92;9.50;;;3.60;99.90;;;;;;5076544;28;20021;-67
2022/11/18 04:56:53;;;;;;;20.50;10.52;;;3.50;99.90;;;;;;5076335;28;20082;-68
2022/11/18 04:59:22;;;;;;;19.75;10.07;;;3.50;99.90;;;;;;5085877;22;20052;-73
2022/11/18 05:01:49;;;;;;;24.25;10.75;;;3.50;99.90;;;;;;5056809;28;20059;-73
2022/11/18 05:04:17;;;;;;;21.98;11.00;;;3.50;99.90;;;;;;5056915;28;20104;-73
2022/11/18 05:06:43;;;;;;;16.45;10.15;;;3.50;99.90;;;;;;5057107;28;20025;-72
2022/11/18 05:09:09;;;;;;;21.63;8.52;;;3.50;99.90;;;;;;5062907;28;20493;-73
2022/11/18 05:14:19;;;;;;;27.88;9.45;;;3.40;99.90;;;;;;5077269;28;20032;-73
2022/11/18 05:16:45;;;;;;;22.23;9.07;;;3.40;99.90;;;;;;5076143;28;20032;-73
2022/11/18 05:19:10;;;;;;;20.42;9.15;;;3.40;99.90;;;;;;5075867;28;20033;-73
2022/11/18 05:21:36;;;;;;;16.13;7.97;;;3.40;99.90;;;;;;5076328;28;20028;-73
2022/11/18 05:24:03;;;;;;;17.77;7.93;;;3.30;99.90;;;;;;5075183;28;20075;-73
2022/11/18 05:26:29;;;;;;;16.27;7.13;;;3.30;99.90;;;;;;5076304;28;20050;-73
2022/11/18 05:28:54;;;;;;;13.93;7.65;;;3.30;99.90;;;;;;5075738;28;20032;-73
2022/11/18 05:31:20;;;;;;;19.70;9.05;;;3.20;99.90;;;;;;5076678;28;20020;-73
2022/11/18 05:33:46;;;;;;;20.80;8.60;;;3.10;99.90;;;;;;5076284;28;20036;-73
2022/11/18 05:36:14;;;;;;;14.77;7.57;;;3.10;99.90;;;;;;5065252;28;20035;-73
2022/11/18 05:38:40;;;;;;;17.17;6.82;;;3.00;99.90;;;;;;5056002;28;20031;-73
2022/11/18 05:41:07;;;;;;;20.70;8.65;;;3.00;99.90;;;;;;5055778;28;20035;-73
2022/11/18 05:43:33;;;;;;;15.15;7.55;;;3.00;99.90;;;;;;5056442;28;20079;-74
2022/11/18 05:45:59;;;;;;;20.95;8.18;;;3.00;99.90;;;;;;5056157;28;20070;-74
2022/11/18 05:48:25;;;;;;;19.55;7.05;;;2.90;99.90;;;;;;5073428;28;20028;-74
2022/11/18 05:50:52;;;;;;;24.75;7.93;;;2.90;99.90;;;;;;5075653;28;20036;-73
2022/11/18 05:53:20;;;;;;;12.43;7.13;;;2.90;99.90;;;;;;5076500;28;20155;-73
2022/11/18 05:55:59;;;;;;;16.23;6.95;;;2.90;99.90;;;;;;5075815;28;20104;-73
2022/11/18 05:58:25;;;;;;;19.98;7.32;;;2.90;99.90;;;;;;5075670;28;20384;-73
2022/11/18 06:00:54;;;;;;;15.10;7.40;;;2.90;99.90;;;;;;5074249;28;20032;-73
2022/11/18 06:03:26;;;;;;;12.23;6.63;;;3.00;99.90;;;;;;5075850;28;20020;-73
2022/11/18 06:05:56;;;;;;;19.58;6.97;;;3.00;99.90;;;;;;5075997;28;20376;-73
2022/11/18 06:08:25;;;;;;;14.13;6.40;;;3.10;99.90;;;;;;5075755;28;20056;-73
2022/11/18 06:10:51;;;;;;;17.08;6.68;;;3.00;99.90;;;;;;5073748;28;20052;-73
2022/11/18 06:13:22;;;;;;;19.67;7.65;;;3.00;99.90;;;;;;5075665;28;20134;-73
2022/11/18 06:15:48;;;;;;;20.23;6.43;;;2.90;99.90;;;;;;5075790;28;20468;-74
2022/11/18 06:18:27;;;;;;;17.73;7.35;;;2.90;99.90;;;;;;5073559;28;20029;-73
2022/11/18 06:20:56;;;;;;;16.92;7.40;;;2.90;99.90;;;;;;5075637;28;20074;-73
2022/11/18 06:23:22;;;;;;;23.38;8.27;;;2.90;99.90;;;;;;5075330;28;20021;-73
2022/11/18 06:25:48;;;;;;;18.73;7.93;;;2.90;99.90;;;;;;5074267;28;20021;-74
2022/11/18 06:28:15;;;;;;;15.07;7.70;;;2.90;99.90;;;;;;5071865;28;20495;-73
2022/11/18 06:30:41;;;;;;;11.80;7.18;;;2.90;99.90;;;;;;5055414;28;20033;-73
2022/11/18 06:33:08;;;;;;;17.30;8.18;;;2.80;99.90;;;;;;5036792;28;20368;-74
2022/11/18 06:35:33;;;;;;;20.83;7.43;;;2.70;99.90;;;;;;5055196;28;20033;-74
2022/11/18 06:37:59;;;;;;;13.88;7.75;;;2.70;99.90;;;;;;5054971;28;20024;-73
2022/11/18 06:40:24;;;;;;;17.65;7.70;;;2.70;99.90;;;;;;5064504;28;20028;-74
2022/11/18 06:45:34;;;;;;;19.15;8.02;;;2.70;99.90;;;;;;5074717;28;20093;-73
2022/11/18 06:48:00;;;;;;;17.40;8.25;;;2.60;99.90;;;;;;5075178;28;20484;-73
2022/11/18 06:50:27;;;;;;;22.15;8.45;;;2.50;99.90;;;;;;5073632;28;20448;-73
2022/11/18 06:52:52;;;;;;;19.70;8.32;;;2.40;99.90;;;;;;5075027;28;20415;-74
2022/11/18 06:55:18;;;;;;;24.42;9.38;;;2.30;99.90;;;;;;5074152;28;20028;-73
2022/11/18 06:57:44;;;;;;;17.33;8.52;;;2.30;99.90;;;;;;5074280;28;20054;-73
2022/11/18 07:00:10;;;;;;;15.23;8.93;;;2.30;99.90;;;;;;5074711;28;20054;-73
2022/11/18 07:02:36;;;;;;;19.52;9.05;;;2.20;99.90;;;;;;5075038;28;20055;-73
2022/11/18 07:05:02;;;;;;;19.40;9.55;;;2.30;99.90;;;;;;5074633;28;20480;-73
2022/11/18 07:07:27;;;;;;;15.30;9.27;;;2.20;99.90;;;;;;5074635;28;20025;-73
2022/11/18 07:09:53;;;;;;;16.65;9.93;;;2.20;99.90;;;;;;5073688;28;20442;-74
2022/11/18 07:12:19;;;;;;;25.35;10.43;;;2.20;99.90;;;;;;5073763;28;20074;-73
2022/11/18 07:14:44;;;;;;;17.88;9.73;;;2.20;99.90;;;;;;5074203;28;20100;-74
2022/11/18 07:17:10;;;;;;;18.00;10.32;;;2.20;99.90;;;;;;5074114;28;20043;-73
2022/11/18 07:19:35;;;;;;;21.80;9.65;;;2.20;99.90;;;;;;5074062;28;20111;-73
2022/11/18 07:22:01;;;;;;;16.67;9.98;;;2.20;99.90;;;;;;5073765;28;20494;-73
2022/11/18 07:24:26;;;;;;;18.25;10.48;;;2.30;99.90;;;;;;5074517;28;20116;-73
2022/11/18 07:26:53;;;;;;;15.65;9.25;;;2.30;99.90;;;;;;5074041;28;20025;-73
2022/11/18 07:29:18;;;;;;;24.85;11.70;;;2.30;99.90;;;;;;5056261;28;20119;-73
2022/11/18 07:31:44;;;;;;;20.83;11.15;;;2.30;99.90;;;;;;5073973;28;20060;-73
2022/11/18 07:34:11;;;;;;;17.83;9.63;;;2.50;99.90;;;;;;5074060;28;20025;-74
2022/11/18 07:36:36;;;;;;;18.92;9.73;;;2.40;99.90;;;;;;5073116;28;20089;-73
2022/11/18 07:39:04;;;;;;;17.75;8.45;;;2.50;99.90;;;;;;5073639;28;20029;-74
2022/11/18 07:41:30;;;;;;;23.45;10.18;;;2.50;99.90;;;;;;5073900;28;20048;-74
2022/11/18 07:43:57;;;;;;;20.85;9.80;;;2.50;99.90;;;;;;5072176;28;20055;-73
2022/11/18 07:46:25;;;;;;;17.98;9.73;;;2.50;99.90;;;;;;5074258;28;20524;-73
2022/11/18 07:48:52;;;;;;;20.75;9.98;;;2.50;99.90;;;;;;5073906;28;20400;-73
2022/11/18 07:51:20;;;;;;;17.67;8.95;;;2.50;99.90;;;;;;5073371;28;20025;-74
2022/11/18 07:53:46;;;;;;;17.02;8.75;;;2.60;99.90;;;;;;5074019;28;20038;-74
2022/11/18 07:56:13;;;;;;;17.63;9.45;;;2.60;99.90;;;;;;5073858;28;20507;-74
2022/11/18 07:58:38;;;;;;;20.92;9.18;;;2.60;99.90;;;;;;5073337;28;20086;-73
2022/11/18 08:01:07;;;;;;;15.85;8.38;;;2.70;99.90;;;;;;5074022;28;20033;-74
2022/11/18 08:03:33;;;;;;;19.20;8.10;;;2.80;99.90;;;;;;5073813;28;20024;-73
2022/11/18 08:05:59;;;;;;;15.00;8.40;;;2.90;99.90;;;;;;5071962;28;20024;-74
2022/11/18 08:08:25;;;;;;;15.50;7.70;;;2.90;99.90;;;;;;5056075;28;20043;-73
2022/11/18 08:10:53;;;;;;;15.65;8.68;;;2.90;99.90;;;;;;5074021;28;20439;-74
2022/11/18 08:13:19;;;;;;;15.57;8.57;;;2.90;99.90;;;;;;5073770;28;20422;-73
2022/11/18 08:15:44;;;;;;;18.35;8.27;;;2.90;99.90;;;;;;5073787;28;20028;-73
2022/11/18 08:18:10;;;;;;;13.57;7.43;;;2.90;99.90;;;;;;5073034;28;20042;-73
2022/11/18 08:20:35;;;;;;;17.50;8.82;;;2.90;99.90;;;;;;5073610;28;20034;-74
2022/11/18 08:23:01;;;;;;;14.70;8.30;;;2.90;99.90;;;;;;5073538;28;20021;-73
2022/11/18 08:25:27;;;;;;;18.95;8.50;;;3.00;99.90;;;;;;5077308;28;20067;-73
2022/11/18 08:27:52;;;;;;;14.10;9.25;;;3.00;99.90;;;;;;5077485;28;20021;-73
2022/11/18 08:30:18;;;;;;;12.10;7.78;;;3.00;99.90;;;;;;5058949;28;20025;-73
2022/11/18 08:32:43;;;;;;;16.75;9.40;;;3.00;99.90;;;;;;5077488;28;20021;-74
2022/11/18 08:35:09;;;;;;;14.70;9.02;;;3.10;99.90;;;;;;5059610;28;20025;-73
2022/11/18 08:37:34;;;;;;;16.60;9.00;;;3.10;99.90;;;;;;5059150;28;20082;-73
2022/11/18 08:40:00;;;;;;;16.77;8.50;;;3.10;99.90;;;;;;5077310;28;20032;-74
2022/11/18 08:42:25;;;;;;;19.25;8.57;;;3.20;99.90;;;;;;5077184;28;20093;-73
2022/11/18 08:44:51;;;;;;;17.88;8.23;;;3.30;99.90;;;;;;5077817;28;20056;-74
2022/11/18 08:47:17;;;;;;;18.15;8.70;;;3.30;99.90;;;;;;5076912;28;20026;-74
2022/11/18 08:49:42;;;;;;;18.02;8.45;;;3.40;99.90;;;;;;5077143;28;20031;-73
2022/11/18 08:52:08;;;;;;;17.23;7.55;;;3.40;99.90;;;;;;5059217;28;20021;-74
2022/11/18 08:54:34;;;;;;;15.25;8.70;;;3.50;99.90;;;;;;5077027;28;20028;-73
2022/11/18 08:57:00;;;;;;;18.35;8.38;;;3.50;99.90;;;;;;5077031;28;20029;-73
2022/11/18 08:59:26;;;;;;;13.18;7.93;;;3.50;99.90;;;;;;5076203;28;20123;-73
2022/11/18 09:01:51;;;;;;;20.02;7.75;;;3.60;99.90;;;;;;5075665;28;20029;-73
2022/11/18 09:04:17;;;;;;;19.77;8.68;;;3.70;99.90;;;;;;5075512;28;20024;-73
2022/11/18 09:06:43;;;;;;;10.98;7.32;;;3.70;99.90;;;;;;5076227;28;20025;-73
2022/11/18 09:09:08;;;;;;;16.05;7.95;;;3.70;99.90;;;;;;5076702;28;20040;-73
2022/11/18 09:11:36;;;;;;;14.00;7.97;;;3.80;99.90;;;;;;5076939;28;20016;-73
2022/11/18 09:14:02;;;;;;;15.30;7.47;;;3.80;99.90;;;;;;5076736;28;20016;-73
2022/11/18 09:16:30;;;;;;;12.52;7.85;;;3.90;99.90;;;;;;5076588;28;20050;-73
2022/11/18 09:18:57;;;;;;;14.45;7.35;;;3.90;99.90;;;;;;5076297;28;20369;-73
2022/11/18 09:21:23;;;;;;;18.73;8.23;;;4.00;99.90;;;;;;5075305;28;20066;-73
2022/11/18 09:23:49;;;;;;;14.93;7.90;;;4.10;99.90;;;;;;5076411;28;20366;-73
2022/11/18 09:26:18;;;;;;;12.85;6.95;;;4.10;99.90;;;;;;5077062;28;20025;-73
2022/11/18 09:28:43;;;;;;;13.48;8.07;;;4.20;99.90;;;;;;5074985;28;20387;-73
2022/11/18 09:31:11;;;;;;;9.02;6.40;;;4.20;99.90;;;;;;5076009;28;20027;-72
2022/11/18 09:33:37;;;;;;;10.98;6.93;;;4.20;99.90;;;;;;5076366;28;20039;-73
2022/11/18 09:36:15;;;;;;;11.43;6.13;;;4.30;99.90;;;;;;5074882;28;20555;-73
2022/11/18 09:38:40;;;;;;;18.40;6.30;;;4.30;99.90;;;;;;5076440;28;20115;-73
2022/11/18 09:41:28;;;;;;;15.27;6.43;;;4.40;99.90;;;;;;5075592;28;20048;-73
2022/11/18 09:44:24;;;;;;;11.80;5.22;;;4.50;99.90;;;;;;5076368;28;20035;-73
2022/11/18 09:47:09;;;;;;;10.18;5.85;;;4.50;99.90;;;;;;5076128;28;20020;-73
2022/11/18 09:49:37;;;;;;;19.40;5.55;;;4.60;99.90;;;;;;5075964;28;20032;-73
2022/11/18 09:52:11;;;;;;;11.90;5.32;;;4.60;99.90;;;;;;5075514;28;20507;-73
2022/11/18 09:54:37;;;;;;;11.05;6.35;;;4.70;99.90;;;;;;5076489;28;20029;-73
2022/11/18 09:57:13;;;;;;;11.38;5.35;;;4.70;99.90;;;;;;5076025;28;20020;-73
2022/11/18 09:59:39;;;;;;;11.75;5.50;;;4.80;99.90;;;;;;5075682;28;20408;-74
2022/11/18 10:02:47;;;;;;;9.80;4.57;;;4.80;99.90;;;;;;5076325;28;20085;-73
2022/11/18 10:05:18;;;;;;;12.43;6.20;;;4.80;99.90;;;;;;5064832;28;20048;-73
2022/11/18 10:07:52;;;;;;;12.65;4.80;;;4.90;99.90;;;;;;5076271;28;20108;-73
2022/11/18 10:10:23;;;;;;;;;;;4.90;99.90;;;;;;5076288;28;20062;-73
2022/11/18 10:13:00;;;;;;;11.35;4.35;;;5.00;99.90;;;;;;5057593;28;19904;-73
2022/11/18 10:15:35;;;;;;;9.52;4.75;;;5.00;99.90;;;;;;5075175;28;20119;-73
2022/11/18 10:18:21;;;;;;;8.32;3.80;;;5.20;99.90;;;;;;5075613;28;20146;-73
2022/11/18 10:21:13;;;;;;;12.48;5.07;;;5.50;99.90;;;;;;5074961;28;20021;-73
2022/11/18 10:23:59;;;;;;;8.57;3.33;;;5.90;99.90;;;;;;5075799;28;20032;-73
2022/11/18 10:26:33;;;;;;;8.27;3.38;;;6.10;99.90;;;;;;5075514;28;20036;-73
2022/11/18 10:28:58;;;;;;;6.43;2.92;;;6.20;99.90;;;;;;5074681;28;20058;-73
2022/11/18 10:31:24;;;;;;;10.73;3.17;;;6.30;99.90;;;;;;5075420;28;20024;-73
2022/11/18 10:33:58;;;;;;;6.38;3.17;;;6.30;99.90;;;;;;5075114;28;20479;-73
2022/11/18 10:36:26;;;;;;;12.25;3.13;;;6.40;99.90;;;;;;5075441;28;20056;-73
2022/11/18 10:39:10;;;;;;;6.88;3.30;;;6.40;99.90;;;;;;5074565;28;20035;-73
2022/11/18 10:41:48;;;;;;;9.93;3.20;;;6.40;99.90;;;;;;5075157;28;20017;-73
2022/11/18 10:44:39;;;;;;;12.73;3.13;;;6.50;99.90;;;;;;5075083;28;20120;-73
2022/11/18 10:47:28;;;;;;;6.43;2.70;;;6.30;99.90;;;;;;5074748;28;20021;-74
2022/11/18 10:50:00;;;;;;;6.32;2.45;;;6.20;99.90;;;;;;5074784;28;20047;-73
2022/11/18 10:52:26;;;;;;;10.73;2.65;;;6.20;99.90;;;;;;5074308;28;20038;-73
2022/11/18 10:55:18;;;;;;;14.70;3.33;;;6.10;99.90;;;;;;5074799;28;20056;-73
2022/11/18 10:57:45;;;;;;;6.00;2.83;;;6.00;99.90;;;;;;5064029;28;20037;-73
2022/11/18 11:00:35;;;;;;;6.63;2.50;;;6.10;99.90;;;;;;5080195;22;20415;-68
2022/11/18 11:03:25;;;;;;;6.95;2.40;;;6.00;99.90;;;;;;5054744;28;20357;-68
2022/11/18 11:06:12;;;;;;;7.20;2.60;;;6.10;99.90;;;;;;5053853;28;20032;-67
2022/11/18 11:08:53;;;;;;;10.98;3.13;;;6.20;99.90;;;;;;5054421;28;20049;-68
2022/11/18 11:11:25;;;;;;;5.60;2.22;;;6.30;99.90;;;;;;5054578;28;20514;-68
2022/11/18 11:14:14;;;;;;;10.35;2.60;;;6.40;99.90;;;;;;5053717;28;20063;-68
2022/11/18 11:16:48;;;;;;;8.60;2.90;;;6.50;99.90;;;;;;5054241;28;20024;-68
2022/11/18 11:19:16;;;;;;;5.53;2.28;;;6.60;99.90;;;;;;5054031;28;20029;-68
2022/11/18 11:21:41;;;;;;;6.15;2.63;;;6.60;99.90;;;;;;5053869;28;20017;-68
2022/11/18 11:24:11;;;;;;;2.95;2.30;;;6.60;99.90;;;;;;5053480;28;20028;-68
2022/11/18 11:27:13;;;;;;;5.03;2.17;;;6.50;99.90;;;;;;5054072;28;20024;-68
2022/11/18 11:29:51;;;;;;;6.95;2.40;;;6.60;99.90;;;;;;5053782;28;20067;-68
2022/11/18 11:32:27;;;;;;;7.45;2.13;;;6.70;99.90;;;;;;5054012;28;20099;-68
2022/11/18 11:35:11;;;;;;;11.77;2.50;;;6.80;99.90;;;;;;5053308;28;20039;-68
2022/11/18 11:38:19;;;;;;;7.05;2.63;;;7.00;99.90;;;;;;5053696;28;20440;-68
2022/11/18 11:40:52;;;;;;;7.82;2.05;;;7.00;99.90;;;;;;5054015;28;20357;-68
2022/11/18 11:43:26;;;;;;;10.15;2.72;;;7.00;99.90;;;;;;5053006;28;20020;-68
2022/11/18 11:46:16;;;;;;;6.13;2.47;;;7.00;99.90;;;;;;5053981;28;20028;-68
2022/11/18 11:48:47;;;;;;;5.60;2.15;;;6.80;99.90;;;;;;5053343;28;20017;-68
2022/11/18 11:51:25;;;;;;;8.32;1.95;;;6.80;99.90;;;;;;5053630;28;20017;-68
2022/11/18 11:54:12;;;;;;;7.50;2.70;;;6.70;99.90;;;;;;5052099;28;20495;-68
2022/11/18 11:57:02;;;;;;;5.15;2.53;;;6.70;99.90;;;;;;5051947;28;20025;-68
2022/11/18 11:59:45;;;;;;;7.38;2.70;;;6.70;99.90;;;;;;5052129;28;20037;-68
2022/11/18 12:02:53;;;;;;;12.68;2.20;;;6.70;99.90;;;;;;5053461;28;20026;-68
2022/11/18 12:05:38;;;;;;;6.72;2.03;;;6.80;99.90;;;;;;4973079;28;20070;-68
2022/11/18 12:08:13;;;;;;;8.25;2.47;;;6.80;99.90;;;;;;5050349;28;20036;-68
2022/11/18 12:10:46;;;;;;;6.88;2.47;;;6.90;99.90;;;;;;5053477;28;20403;-68
2022/11/18 12:13:16;;;;;;;;;;;6.90;99.90;;;;;;5050985;28;20032;-68
2022/11/18 12:16:01;;;;;;;4.55;1.70;;;7.10;99.90;;;;;;5050719;28;19942;-68
2022/11/18 12:18:26;;;;;;;7.32;1.50;;;7.30;99.90;;;;;;5050674;28;20108;-68
2022/11/18 12:20:53;;;;;;;4.13;1.40;;;7.50;99.90;;;;;;5049937;28;20109;-68
2022/11/18 12:23:22;;;;;;;6.53;2.00;;;7.70;99.90;;;;;;5058097;28;20019;-68
2022/11/18 12:26:01;;;;;;;4.43;1.85;;;7.70;99.90;;;;;;5044516;28;20068;-68
2022/11/18 12:28:42;;;;;;;8.57;2.05;;;7.60;99.90;;;;;;5044671;28;20021;-68
2022/11/18 12:31:22;;;;;;;10.43;2.22;;;7.30;99.90;;;;;;5052935;28;20060;-68
2022/11/18 12:33:47;;;;;;;4.18;1.65;;;7.20;99.90;;;;;;5052932;28;20043;-68
2022/11/18 12:36:34;;;;;;;7.35;2.13;;;7.10;99.90;;;;;;5052924;28;20017;-68
2022/11/18 12:39:24;;;;;;;8.75;2.80;;;6.90;99.90;;;;;;5034915;28;20104;-68
2022/11/18 12:44:45;;;;;;;12.63;1.50;;;6.90;99.90;;;;;;5053456;28;20028;-68
2022/11/18 12:47:12;;;;;;;6.18;1.52;;;7.10;99.90;;;;;;5052799;28;20392;-68
2022/11/18 12:49:37;;;;;;;4.43;2.15;;;7.20;99.90;;;;;;5034937;28;20395;-68
2022/11/18 12:52:24;;;;;;;7.50;2.03;;;7.30;99.90;;;;;;5052767;28;20104;-68
2022/11/18 12:54:50;;;;;;;8.13;2.22;;;7.50;99.90;;;;;;5052667;28;20388;-68
2022/11/18 12:57:22;;;;;;;7.70;1.65;;;8.00;99.90;;;;;;5052761;28;20083;-68
2022/11/18 12:59:48;;;;;;;5.78;1.73;;;8.70;99.90;;;;;;5051892;28;20037;-68
2022/11/18 13:02:31;;;;;;;8.18;2.17;;;9.30;99.90;;;;;;5052664;28;20522;-69
2022/11/18 13:05:10;;;;;;;6.07;2.10;;;9.40;99.90;;;;;;5052711;28;20082;-69
2022/11/18 13:08:13;;;;;;;5.70;1.83;;;9.50;99.90;;;;;;5052055;28;20079;-68
2022/11/18 13:11:43;;;;;;;7.40;1.85;;;9.20;99.90;;;;;;5055002;28;20112;-68
2022/11/18 13:13:40;;;;;;;3.60;1.35;;;8.70;99.90;;;;;;5056169;28;20496;-68
2022/11/18 13:17:50;;;;;;;3.20;1.80;;;8.50;99.90;;;;;;5056256;28;20024;-68
2022/11/18 13:19:29;;;;;;;9.40;1.65;;;8.20;99.90;;;;;;5055826;28;20388;-68